Latest Weather Observations for Busselton Airport

IDW60801

Issued at 6:33 am WST Friday 24 February 2017 (issued every 30 minutes, with the page automatically refreshed every 10 minutes)

About weather observations | Map of weather stations | Latest weather observations for WA | Other Formats
Station Details ID: 009603 Name: BUSSELTON AERO Lat: -33.69 Lon: 115.40 Height: 16.3 m
Data from the previous 72 hours. | See also: Recent months at Busselton Airport
Date/Time
WST
Temp
°C
App
Temp
°C
Dew
Point
°C
Rel
Hum
%
Delta-T
°C
Wind Press
QNH
hPa
Press
MSL
hPa
Rain since
9am
mm
Dir  Spd
km/h
Gust
km/h
Spd
kts
Gust
kts
24/06:30am 16.9 14.6 13.0 78 2.2 E 17 24 9 13 1022.3 1022.3 0.0
24/06:00am 16.3 13.4 13.0 81 1.8 E 20 28 11 15 1022.0 1022.0 0.0
24/05:30am 16.4 13.1 12.9 80 1.9 E 22 28 12 15 1021.7 1021.7 0.0
24/05:00am 16.7 13.5 13.2 80 2.0 E 22 28 12 15 1021.5 1021.5 0.0
24/04:30am 16.7 14.1 13.2 80 2.0 ESE 19 22 10 12 1021.4 1021.4 0.0
24/04:00am 16.9 15.1 13.2 79 2.1 E 15 24 8 13 1021.7 1021.7 0.0
24/03:30am 17.0 14.4 13.1 78 2.2 E 19 24 10 13 1021.3 1021.3 0.0
24/03:00am 17.0 14.7 13.1 78 2.2 E 17 20 9 11 1021.4 1021.4 0.0
24/02:30am 17.3 14.7 13.2 77 2.3 ESE 19 24 10 13 1021.4 1021.4 0.0
24/02:00am 17.2 14.9 13.1 77 2.3 ESE 17 22 9 12 1021.4 1021.4 0.0
24/01:30am 17.2 14.9 12.9 76 2.4 ESE 17 19 9 10 1021.6 1021.6 0.0
24/01:00am 17.5 14.8 13.0 75 2.5 ESE 19 22 10 12 1021.7 1021.7 0.0
24/12:30am 17.2 15.2 12.7 75 2.5 ESE 15 20 8 11 1021.9 1021.9 0.0
24/12:00am 17.6 15.7 13.1 75 2.5 SE 15 20 8 11 1022.0 1022.0 0.0
 
Date/Time
WST
Temp
°C
App
Temp
°C
Dew
Point
°C
Rel
Hum
%
Delta-T
°C
Wind Press
QNH
hPa
Press
MSL
hPa
Rain since
9am
mm
Dir  Spd
km/h
Gust
km/h
Spd
kts
Gust
kts
23/11:30pm 16.9 15.6 12.6 76 2.4 SSE 11 15 6 8 1022.0 1022.0 0.0
23/11:00pm 16.9 15.2 12.6 76 2.4 SSE 13 15 7 8 1022.1 1022.1 0.0
23/10:30pm 17.7 16.2 13.0 74 2.6 SSE 13 17 7 9 1022.3 1022.3 0.0
23/10:00pm 17.4 16.1 12.5 73 2.7 S 11 17 6 9 1022.3 1022.3 0.0
23/09:30pm 17.7 15.3 12.6 72 2.8 S 17 19 9 10 1022.3 1022.3 0.0
23/09:00pm 18.1 15.4 12.8 71 3.0 S 19 24 10 13 1022.2 1022.2 0.0
23/08:30pm 18.4 15.4 12.6 69 3.2 S 20 26 11 14 1022.0 1022.0 0.0
23/08:00pm 19.0 16.2 12.7 67 3.5 S 19 24 10 13 1021.9 1021.9 0.0
23/07:30pm 20.0 16.4 13.0 64 4.0 SSW 24 28 13 15 1021.7 1021.7 0.0
23/07:00pm 21.3 17.7 13.0 59 4.7 SSW 24 32 13 17 1021.5 1021.5 0.0
23/06:30pm 23.3 19.5 13.5 54 5.7 SSW 26 32 14 17 1021.0 1021.0 0.0
23/06:00pm 25.4 22.1 13.9 49 6.8 SSW 24 30 13 16 1020.5 1020.5 0.0
23/05:30pm 26.5 24.1 13.9 45 7.5 WSW 19 24 10 13 1020.2 1020.2 0.0
23/05:00pm 27.5 24.9 13.8 43 8.1 WSW 20 30 11 16 1020.1 1020.1 0.0
23/04:30pm 27.1 24.6 13.4 42 8.1 WNW 19 30 10 16 1019.9 1019.9 0.0
23/04:00pm 26.4 23.9 14.2 47 7.2 WNW 20 26 11 14 1020.0 1020.0 0.0
23/03:30pm 26.6 23.0 13.0 43 8.0 NW 24 28 13 15 1020.1 1020.1 0.0
23/03:00pm 27.0 23.9 12.3 40 8.5 NW 20 24 11 13 1020.2 1020.2 0.0
23/02:30pm 26.7 24.2 12.4 41 8.3 NW 17 24 9 13 1020.4 1020.4 0.0
23/02:00pm 26.9 24.1 12.5 40 8.3 NNW 19 24 10 13 1020.7 1020.7 0.0
23/01:30pm 26.4 24.5 11.7 40 8.4 NW 13 20 7 11 1021.1 1021.1 0.0
23/01:00pm 26.2 23.5 13.0 44 7.7 NNW 19 24 10 13 1021.3 1021.3 0.0
23/12:30pm 26.6 25.8 13.0 43 8.0 ENE 9 15 5 8 1021.5 1021.5 0.0
23/12:00pm 25.8 25.3 12.6 44 7.6 S 7 13 4 7 1021.8 1021.8 0.0
23/11:30am 24.0 23.4 11.7 46 7.0 ESE 6 15 3 8 1022.2 1022.2 0.0
23/11:00am 24.2 23.9 12.8 49 6.5 ESE 6 11 3 6 1022.5 1022.5 0.0
23/10:30am 22.2 20.9 12.5 54 5.5 SSE 11 17 6 9 1022.7 1022.7 0.0
23/10:00am 22.4 21.6 12.9 55 5.4 SE 9 19 5 10 1022.9 1022.9 0.0
23/09:30am 20.5 18.8 12.5 60 4.5 SE 13 19 7 10 1023.0 1023.0 0.0
23/09:00am 20.5 19.4 13.2 63 4.1 SE 11 20 6 11 1023.2 1023.2 0.0
23/08:30am 18.9 17.6 13.7 72 3.0 SE 13 17 7 9 1023.3 1023.3 0.0
23/08:00am 16.5 16.6 15.5 94 0.6 SE 9 13 5 7 1023.2 1023.2 0.0
23/07:30am 14.2 14.1 14.0 99 0.1 S 7 9 4 5 1023.0 1023.0 0.0
23/07:00am 11.5 10.8 11.3 99 0.1 S 6 7 3 4 1022.9 1022.9 0.0
23/06:30am 9.5 8.0 9.2 98 0.1 S 7 9 4 5 1022.6 1022.6 0.0
23/06:00am 9.2 7.6 8.9 98 0.1 ESE 7 7 4 4 1022.3 1022.3 0.0
23/05:30am 8.4 6.6 7.8 96 0.3 ESE 7 7 4 4 1022.1 1022.1 0.0
23/05:00am 8.9 8.5 8.3 96 0.3 CALM 0 0 0 0 1021.7 1021.7 0.0
23/04:30am 8.7 7.1 7.9 95 0.4 E 6 7 3 4 1021.5 1021.5 0.0
23/04:00am 9.1 8.7 8.3 95 0.4 CALM 0 0 0 0 1021.4 1021.4 0.0
23/03:30am 9.7 9.5 8.9 95 0.4 CALM 0 0 0 0 1021.4 1021.4 0.0
23/03:00am 10.7 10.7 9.9 95 0.4 CALM 0 0 0 0 1021.4 1021.4 0.0
23/02:30am 10.8 9.8 10.2 96 0.3 S 6 7 3 4 1021.2 1021.2 0.0
23/02:00am 10.7 9.6 9.9 95 0.4 S 6 7 3 4 1021.2 1021.2 0.0
23/01:30am 11.4 10.5 10.5 94 0.5 SSW 6 7 3 4 1021.4 1021.4 0.0
23/01:00am 11.1 9.4 10.0 93 0.6 SSW 9 11 5 6 1021.3 1021.3 0.0
23/12:30am 12.0 11.2 10.9 93 0.6 SSE 6 7 3 4 1021.2 1021.2 0.0
23/12:00am 12.4 11.6 11.1 92 0.7 SSE 6 7 3 4 1021.4 1021.4 0.0
 
Date/Time
WST
Temp
°C
App
Temp
°C
Dew
Point
°C
Rel
Hum
%
Delta-T
°C
Wind Press
QNH
hPa
Press
MSL
hPa
Rain since
9am
mm
Dir  Spd
km/h
Gust
km/h
Spd
kts
Gust
kts
22/11:30pm 12.2 11.3 10.8 91 0.7 S 6 9 3 5 1021.5 1021.5 0.0
22/11:00pm 12.4 12.2 10.5 88 1.0 E 2 6 1 3 1021.3 1021.3 0.0
22/10:30pm 12.5 11.5 10.2 86 1.2 E 6 6 3 3 1021.6 1021.6 0.0
22/10:00pm 14.2 14.7 11.5 84 1.4 CALM 0 0 0 0 1021.8 1021.8 0.0
22/09:30pm 14.5 14.3 11.7 83 1.5 SSE 4 6 2 3 1021.7 1021.7 0.0
22/09:00pm 15.6 15.1 12.2 80 1.8 SSW 6 7 3 4 1021.7 1021.7 0.0
22/08:30pm 17.3 16.5 13.0 76 2.4 SW 9 11 5 6 1021.5 1021.5 0.0
22/08:00pm 17.7 17.1 12.4 71 2.9 SW 7 9 4 5 1021.2 1021.2 0.0
22/07:30pm 18.6 17.0 12.8 69 3.3 SW 13 17 7 9 1021.0 1021.0 0.0
22/07:00pm 19.1 16.7 12.8 67 3.5 SW 17 24 9 13 1020.7 1020.7 0.0
22/06:30pm 20.2 17.3 12.9 63 4.1 WSW 20 30 11 16 1020.3 1020.3 0.0
22/06:00pm 21.4 18.5 12.8 58 4.9 WSW 20 30 11 16 1020.0 1020.0 0.0
22/05:30pm 22.0 18.3 12.8 56 5.2 WSW 24 32 13 17 1019.8 1019.8 0.0
22/05:00pm 22.5 19.2 12.7 54 5.6 WSW 22 30 12 16 1019.6 1019.6 0.0
22/04:30pm 23.6 21.9 12.3 49 6.4 SW 13 30 7 16 1019.6 1019.6 0.0
22/04:00pm 23.5 21.3 12.2 49 6.4 SSW 15 28 8 15 1019.6 1019.6 0.0
22/03:30pm 21.6 20.8 13.0 58 4.9 N 9 17 5 9 1019.6 1019.6 0.0
22/03:00pm 21.1 18.0 13.3 61 4.5 N 22 28 12 15 1020.1 1020.1 0.0
22/02:30pm 20.5 17.5 13.7 65 3.9 NNW 22 28 12 15 1020.4 1020.4 0.0
22/02:00pm 21.5 19.0 14.2 63 4.2 NNW 20 26 11 14 1020.6 1020.6 0.0
22/01:30pm 20.6 17.3 14.0 66 3.8 NNW 24 30 13 16 1020.9 1020.9 0.0
22/01:00pm 20.2 17.4 13.2 64 4.0 NNW 20 26 11 14 1021.1 1021.1 0.0
22/12:30pm 20.1 17.3 12.6 62 4.2 NNW 19 24 10 13 1021.0 1021.0 0.0
22/12:00pm 19.5 17.0 12.3 63 4.0 NNW 17 22 9 12 1021.1 1021.1 0.0
22/11:30am 19.6 18.2 12.1 62 4.2 N 11 17 6 9 1021.2 1021.2 0.0
22/11:00am 18.7 16.5 12.0 65 3.7 NW 15 20 8 11 1021.3 1021.3 0.0
22/10:30am 18.7 15.7 12.0 65 3.7 NNW 19 24 10 13 1021.3 1021.3 0.0
22/10:00am 19.1 17.3 10.9 59 4.4 WNW 11 17 6 9 1021.3 1021.3 0.0
22/09:30am 19.3 18.2 12.1 63 4.0 W 9 19 5 10 1021.3 1021.3 0.0
22/09:00am 18.2 16.1 11.3 64 3.7 WNW 13 19 7 10 1021.3 1021.3 0.0
22/08:30am 17.8 17.1 11.4 66 3.5 WNW 6 11 3 6 1021.2 1021.2 0.0
22/08:00am 17.0 16.7 11.3 69 3.1 S 4 7 2 4 1021.0 1021.0 0.0
22/07:30am 16.5 16.6 11.4 72 2.8 NNW 2 7 1 4 1020.6 1020.6 0.0
22/07:00am 15.9 15.2 11.3 74 2.5 N 6 7 3 4 1020.2 1020.2 0.0
22/06:30am 15.0 15.2 10.6 75 2.3 CALM 0 0 0 0 1020.0 1020.0 0.0
22/06:00am 15.0 14.7 10.2 73 2.5 ESE 2 7 1 4 1019.8 1019.8 0.0
22/05:30am 15.3 15.4 10.1 71 2.7 CALM 0 6 0 3 1019.6 1019.6 0.0
22/05:00am 15.8 14.1 9.9 68 3.1 SSW 9 11 5 6 1019.3 1019.3 0.0
22/04:30am 15.4 14.6 9.7 69 3.0 WSW 4 7 2 4 1019.1 1019.1 0.0
22/04:00am 15.0 13.7 9.8 71 2.7 SSW 7 11 4 6 1019.1 1019.1 0.0
22/03:30am 14.8 14.7 9.6 71 2.7 CALM 0 4 0 2 1018.7 1018.7 0.0
22/03:00am 14.3 13.8 9.5 73 2.5 NNW 2 7 1 4 1018.6 1018.6 0.0
22/02:30am 14.1 13.9 8.9 71 2.6 CALM 0 0 0 0 1018.5 1018.5 0.0
22/02:00am 14.1 13.4 8.7 70 2.7 WNW 2 6 1 3 1018.6 1018.6 0.0
22/01:30am 13.9 12.9 8.7 71 2.6 SSW 4 7 2 4 1018.7 1018.7 0.0
22/01:00am 14.0 12.6 8.8 71 2.6 SSW 6 7 3 4 1019.0 1019.0 0.0
22/12:30am 13.8 13.1 8.6 71 2.6 S 2 6 1 3 1018.9 1018.9 0.0
22/12:00am 13.8 13.5 8.8 72 2.5 CALM 0 0 0 0 1018.9 1018.9 0.0
 
Date/Time
WST
Temp
°C
App
Temp
°C
Dew
Point
°C
Rel
Hum
%
Delta-T
°C
Wind Press
QNH
hPa
Press
MSL
hPa
Rain since
9am
mm
Dir  Spd
km/h
Gust
km/h
Spd
kts
Gust
kts
21/11:30pm 13.3 12.9 8.2 71 2.5 CALM 0 0 0 0 1018.9 1018.9 0.0
21/11:00pm 13.6 13.1 7.8 68 2.9 CALM 0 0 0 0 1019.0 1019.0 0.0
21/10:30pm 13.5 11.9 7.9 69 2.8 SSW 6 7 3 4 1019.2 1019.2 0.0
21/10:00pm 13.3 11.4 7.5 68 2.8 SW 7 9 4 5 1019.2 1019.2 0.0
21/09:30pm 14.3 12.4 7.4 63 3.4 SW 7 9 4 5 1019.1 1019.1 0.0
21/09:00pm 14.2 12.2 7.3 63 3.4 SW 7 9 4 5 1018.9 1018.9 0.0
21/08:30pm 14.7 12.0 7.3 61 3.6 SSW 11 11 6 6 1018.6 1018.6 0.0
21/08:00pm 15.5 13.1 7.0 57 4.2 SW 9 13 5 7 1018.4 1018.4 0.0
21/07:30pm 15.7 12.1 6.7 55 4.4 SSW 15 20 8 11 1018.0 1018.0 0.0
21/07:00pm 17.2 12.1 7.8 54 4.7 SSW 24 32 13 17 1017.6 1017.6 0.0
21/06:30pm 18.1 13.5 8.1 52 5.1 SSW 22 32 12 17 1017.2 1017.2 0.0
21/06:00pm 18.4 12.6 8.1 51 5.3 SW 28 37 15 20 1016.7 1016.7 0.0
21/05:30pm 19.6 13.3 7.4 45 6.2 SSW 30 37 16 20 1016.2 1016.2 0.0
21/05:00pm 19.3 12.7 6.1 42 6.5 SSW 30 39 16 21 1015.9 1015.9 0.0
21/04:30pm 20.1 13.3 7.1 43 6.6 SSW 32 50 17 27 1015.8 1015.8 0.0
21/04:24pm 20.8 13.9 6.4 39 7.3 SW 32 50 17 27 1015.8 1015.8 0.0
21/04:00pm 20.8 14.2 6.0 38 7.4 SW 30 41 16 22 1015.6 1015.6 0.0
21/03:30pm 19.9 12.6 7.0 43 6.5 SW 35 44 19 24 1015.5 1015.5 0.0
21/03:00pm 19.7 12.3 6.8 43 6.5 SW 35 46 19 25 1015.3 1015.3 0.0
21/02:30pm 20.4 13.6 6.7 41 6.9 SW 32 41 17 22 1015.2 1015.2 0.0
21/02:00pm 20.1 14.1 7.1 43 6.6 SW 28 44 15 24 1015.3 1015.3 0.0
21/01:30pm 19.6 12.9 7.4 45 6.2 SW 32 43 17 23 1015.1 1015.1 0.0
21/01:00pm 19.6 12.4 6.0 41 6.7 WSW 33 48 18 26 1014.9 1014.9 0.0
21/12:30pm 19.5 11.1 3.6 35 7.5 SW 37 50 20 27 1014.5 1014.5 0.0
21/12:00pm 19.9 12.5 6.6 42 6.7 SW 35 54 19 29 1014.5 1014.5 0.0
21/11:51am 20.2 13.4 6.9 42 6.7 SW 32 54 17 29 1014.6 1014.6 0.0
21/11:30am 19.1 11.5 7.5 47 5.9 SW 37 50 20 27 1014.7 1014.7 0.0
21/11:21am 18.6 11.8 7.1 47 5.8 SW 32 50 17 27 1014.7 1014.7 0.0
21/11:00am 19.3 13.4 7.4 46 6.1 WSW 28 44 15 24 1014.4 1014.4 0.0
21/10:51am 18.8 12.4 6.9 46 6.0 WSW 30 41 16 22 1014.2 1014.2 0.0
21/10:30am 19.4 11.5 6.2 42 6.6 SW 37 50 20 27 1014.3 1014.3 0.0
21/10:21am 19.1 12.8 5.6 41 6.6 SW 28 46 15 25 1014.4 1014.4 0.0
21/10:00am 18.5 11.1 6.7 46 5.9 SW 35 48 19 26 1014.4 1014.4 0.0
21/09:30am 18.7 11.5 7.5 48 5.7 SW 35 46 19 25 1014.2 1014.2 0.0
21/09:00am 17.4 10.7 7.5 52 5.0 SW 32 43 17 23 1013.9 1013.9 2.0
21/08:30am 17.2 10.2 7.0 51 5.1 SW 33 46 18 25 1013.7 1013.7 2.0
21/08:00am 16.3 11.1 9.0 62 3.8 SW 26 35 14 19 1013.2 1013.2 2.0
21/07:30am 15.6 11.8 9.1 65 3.3 SW 19 26 10 14 1012.6 1012.6 2.0
21/07:00am 14.0 10.6 9.2 73 2.4 SW 17 28 9 15 1012.3 1012.3 2.0

Other Formats:

Comma delimited format used in spreadsheet applications
http://www.bom.gov.au/fwo/IDW60801/IDW60801.95611.axf

JavaScript Object Notation format (JSON) in row-major order
http://www.bom.gov.au/fwo/IDW60801/IDW60801.95611.json